sensor_id;sensor_type;location;lat;lon;timestamp;pressure;altitude;pressure_sealevel;temperature;humidity
76853;BME280;65825;52.232;10.566;2024-03-02T00:00:20;99633.47;;;11.45;65.47
76853;BME280;65825;52.232;10.566;2024-03-02T00:02:47;99636.59;;;11.53;65.44
76853;BME280;65825;52.232;10.566;2024-03-02T00:05:15;99635.38;;;11.26;65.80
76853;BME280;65825;52.232;10.566;2024-03-02T00:07:45;99628.75;;;11.35;65.79
76853;BME280;65825;52.232;10.566;2024-03-02T00:10:14;99627.16;;;11.48;65.20
76853;BME280;65825;52.232;10.566;2024-03-02T00:12:41;99630.59;;;11.50;65.15
76853;BME280;65825;52.232;10.566;2024-03-02T00:17:42;99622.44;;;10.69;68.39
76853;BME280;65825;52.232;10.566;2024-03-02T00:20:09;99626.56;;;11.26;66.38
76853;BME280;65825;52.232;10.566;2024-03-02T00:22:35;99630.06;;;11.77;65.00
76853;BME280;65825;52.232;10.566;2024-03-02T00:25:03;99625.00;;;11.73;64.67
76853;BME280;65825;52.232;10.566;2024-03-02T00:27:28;99619.41;;;11.94;64.30
76853;BME280;65825;52.232;10.566;2024-03-02T00:29:54;99620.16;;;11.81;63.91
76853;BME280;65825;52.232;10.566;2024-03-02T00:32:19;99619.56;;;11.76;64.78
76853;BME280;65825;52.232;10.566;2024-03-02T00:34:44;99619.34;;;11.63;64.85
76853;BME280;65825;52.232;10.566;2024-03-02T00:37:10;99621.66;;;12.02;63.71
76853;BME280;65825;52.232;10.566;2024-03-02T00:39:36;99618.69;;;11.75;64.08
76853;BME280;65825;52.232;10.566;2024-03-02T00:42:02;99604.00;;;11.53;64.75
76853;BME280;65825;52.232;10.566;2024-03-02T00:44:27;99615.84;;;11.63;64.67
76853;BME280;65825;52.232;10.566;2024-03-02T00:46:59;99617.78;;;11.59;65.11
76853;BME280;65825;52.232;10.566;2024-03-02T00:49:24;99613.31;;;11.77;64.60
76853;BME280;65825;52.232;10.566;2024-03-02T00:51:53;99589.75;;;11.40;65.21
76853;BME280;65825;52.232;10.566;2024-03-02T00:54:23;99606.47;;;11.73;64.32
76853;BME280;65825;52.232;10.566;2024-03-02T00:56:51;99613.44;;;11.91;63.74
76853;BME280;65825;52.232;10.566;2024-03-02T00:59:16;99606.53;;;11.88;64.05
76853;BME280;65825;52.232;10.566;2024-03-02T01:01:42;99610.94;;;11.88;63.42
76853;BME280;65825;52.232;10.566;2024-03-02T01:04:08;99607.97;;;11.94;64.04
76853;BME280;65825;52.232;10.566;2024-03-02T01:06:33;99608.09;;;11.60;65.22
76853;BME280;65825;52.232;10.566;2024-03-02T01:08:59;99597.69;;;11.55;64.50
76853;BME280;65825;52.232;10.566;2024-03-02T01:11:24;99603.63;;;11.93;63.95
76853;BME280;65825;52.232;10.566;2024-03-02T01:13:50;99598.69;;;11.87;64.49
76853;BME280;65825;52.232;10.566;2024-03-02T01:16:16;99596.78;;;11.73;64.27
76853;BME280;65825;52.232;10.566;2024-03-02T01:18:42;99588.34;;;11.82;63.94
76853;BME280;65825;52.232;10.566;2024-03-02T01:21:07;99596.81;;;11.22;65.03
76853;BME280;65825;52.232;10.566;2024-03-02T01:23:33;99596.78;;;11.07;66.20
76853;BME280;65825;52.232;10.566;2024-03-02T01:25:58;99590.44;;;11.43;65.55
76853;BME280;65825;52.232;10.566;2024-03-02T01:28:23;99594.38;;;11.69;64.91
76853;BME280;65825;52.232;10.566;2024-03-02T01:30:48;99597.34;;;11.46;65.15
76853;BME280;65825;52.232;10.566;2024-03-02T01:33:15;99603.88;;;11.39;66.03
76853;BME280;65825;52.232;10.566;2024-03-02T01:35:40;99600.69;;;11.32;66.35
76853;BME280;65825;52.232;10.566;2024-03-02T01:38:05;99600.84;;;11.46;65.93
76853;BME280;65825;52.232;10.566;2024-03-02T01:40:33;99596.09;;;11.36;65.71
76853;BME280;65825;52.232;10.566;2024-03-02T01:42:58;99605.38;;;11.27;66.41
76853;BME280;65825;52.232;10.566;2024-03-02T01:45:24;99596.03;;;11.03;66.71
76853;BME280;65825;52.232;10.566;2024-03-02T01:47:49;99597.53;;;11.43;65.60
76853;BME280;65825;52.232;10.566;2024-03-02T01:50:15;99601.53;;;11.50;65.65
76853;BME280;65825;52.232;10.566;2024-03-02T01:52:40;99604.50;;;11.27;65.89
76853;BME280;65825;52.232;10.566;2024-03-02T01:55:06;99602.88;;;11.41;65.46
76853;BME280;65825;52.232;10.566;2024-03-02T01:57:33;99596.28;;;11.16;66.20
76853;BME280;65825;52.232;10.566;2024-03-02T01:59:59;99601.72;;;11.30;66.33
76853;BME280;65825;52.232;10.566;2024-03-02T02:02:25;99607.34;;;11.07;66.96
76853;BME280;65825;52.232;10.566;2024-03-02T02:04:50;99604.63;;;11.58;65.84
76853;BME280;65825;52.232;10.566;2024-03-02T02:07:15;99602.34;;;11.35;65.68
76853;BME280;65825;52.232;10.566;2024-03-02T02:09:41;99608.13;;;11.75;64.85
76853;BME280;65825;52.232;10.566;2024-03-02T02:12:07;99611.72;;;11.57;64.83
76853;BME280;65825;52.232;10.566;2024-03-02T02:14:32;99605.84;;;11.35;65.44
76853;BME280;65825;52.232;10.566;2024-03-02T02:16:58;99607.69;;;11.33;65.08
76853;BME280;65825;52.232;10.566;2024-03-02T02:19:23;99610.50;;;11.30;65.82
76853;BME280;65825;52.232;10.566;2024-03-02T02:21:48;99610.81;;;10.90;66.88
76853;BME280;65825;52.232;10.566;2024-03-02T02:24:14;99616.31;;;11.54;65.63
76853;BME280;65825;52.232;10.566;2024-03-02T02:26:39;99612.44;;;11.44;65.65
76853;BME280;65825;52.232;10.566;2024-03-02T02:29:04;99609.22;;;11.54;65.44
76853;BME280;65825;52.232;10.566;2024-03-02T02:31:40;99605.81;;;11.52;64.69
76853;BME280;65825;52.232;10.566;2024-03-02T02:34:05;99602.19;;;11.21;65.72
76853;BME280;65825;52.232;10.566;2024-03-02T02:36:32;99611.28;;;11.66;65.00
76853;BME280;65825;52.232;10.566;2024-03-02T02:39:00;99609.59;;;11.81;64.32
76853;BME280;65825;52.232;10.566;2024-03-02T02:41:28;99610.13;;;11.87;64.43
76853;BME280;65825;52.232;10.566;2024-03-02T02:43:53;99611.22;;;11.83;64.33
76853;BME280;65825;52.232;10.566;2024-03-02T02:46:18;99609.25;;;11.87;64.29
76853;BME280;65825;52.232;10.566;2024-03-02T02:48:44;99604.50;;;11.27;66.06
76853;BME280;65825;52.232;10.566;2024-03-02T02:51:09;99616.06;;;11.58;65.44
76853;BME280;65825;52.232;10.566;2024-03-02T02:53:34;99604.91;;;11.36;66.37
76853;BME280;65825;52.232;10.566;2024-03-02T02:56:00;99597.75;;;11.21;66.39
76853;BME280;65825;52.232;10.566;2024-03-02T02:58:25;99593.41;;;11.03;67.16
76853;BME280;65825;52.232;10.566;2024-03-02T03:00:51;99596.88;;;10.70;68.24
76853;BME280;65825;52.232;10.566;2024-03-02T03:03:16;99593.34;;;11.05;67.94
76853;BME280;65825;52.232;10.566;2024-03-02T03:05:41;99586.41;;;10.85;68.08
76853;BME280;65825;52.232;10.566;2024-03-02T03:08:06;99588.56;;;10.77;68.67
76853;BME280;65825;52.232;10.566;2024-03-02T03:10:32;99590.69;;;10.88;67.91
76853;BME280;65825;52.232;10.566;2024-03-02T03:12:58;99598.03;;;10.64;69.23
76853;BME280;65825;52.232;10.566;2024-03-02T03:15:23;99578.91;;;11.12;67.52
76853;BME280;65825;52.232;10.566;2024-03-02T03:17:48;99589.13;;;10.84;68.12
76853;BME280;65825;52.232;10.566;2024-03-02T03:20:14;99589.44;;;10.61;68.81
76853;BME280;65825;52.232;10.566;2024-03-02T03:22:40;99584.19;;;11.12;67.72
76853;BME280;65825;52.232;10.566;2024-03-02T03:25:06;99583.31;;;10.94;68.38
76853;BME280;65825;52.232;10.566;2024-03-02T03:27:33;99586.28;;;11.05;67.94
76853;BME280;65825;52.232;10.566;2024-03-02T03:29:58;99586.78;;;10.61;68.88
76853;BME280;65825;52.232;10.566;2024-03-02T03:32:23;99575.38;;;10.77;69.23
76853;BME280;65825;52.232;10.566;2024-03-02T03:34:48;99574.84;;;11.05;68.19
76853;BME280;65825;52.232;10.566;2024-03-02T03:37:14;99580.19;;;11.37;67.50
76853;BME280;65825;52.232;10.566;2024-03-02T03:39:40;99584.19;;;11.12;67.93
76853;BME280;65825;52.232;10.566;2024-03-02T03:42:05;99575.00;;;10.85;68.10
76853;BME280;65825;52.232;10.566;2024-03-02T03:44:31;99581.03;;;11.21;67.72
76853;BME280;65825;52.232;10.566;2024-03-02T03:46:56;99579.50;;;10.83;68.24
76853;BME280;65825;52.232;10.566;2024-03-02T03:49:22;99572.28;;;11.03;68.37
76853;BME280;65825;52.232;10.566;2024-03-02T03:51:47;99562.16;;;10.60;68.40
76853;BME280;65825;52.232;10.566;2024-03-02T03:54:12;99561.03;;;10.66;69.44
76853;BME280;65825;52.232;10.566;2024-03-02T03:56:37;99568.47;;;10.75;69.50
76853;BME280;65825;52.232;10.566;2024-03-02T03:59:03;99572.25;;;10.52;69.58
76853;BME280;65825;52.232;10.566;2024-03-02T04:01:29;99576.19;;;10.44;70.51
76853;BME280;65825;52.232;10.566;2024-03-02T04:03:55;99570.31;;;10.20;71.60
76853;BME280;65825;52.232;10.566;2024-03-02T04:06:20;99569.72;;;10.32;71.02
76853;BME280;65825;52.232;10.566;2024-03-02T04:08:45;99567.63;;;10.39;69.93
76853;BME280;65825;52.232;10.566;2024-03-02T04:11:10;99569.91;;;10.11;70.71
76853;BME280;65825;52.232;10.566;2024-03-02T04:13:36;99570.47;;;10.17;71.09
76853;BME280;65825;52.232;10.566;2024-03-02T04:16:01;99564.78;;;10.43;70.31
76853;BME280;65825;52.232;10.566;2024-03-02T04:18:26;99558.97;;;10.18;69.77
76853;BME280;65825;52.232;10.566;2024-03-02T04:20:51;99564.19;;;10.55;69.86
76853;BME280;65825;52.232;10.566;2024-03-02T04:23:17;99563.41;;;10.53;68.92
76853;BME280;65825;52.232;10.566;2024-03-02T04:25:42;99558.31;;;10.84;68.74
76853;BME280;65825;52.232;10.566;2024-03-02T04:28:07;99562.59;;;10.34;69.94
76853;BME280;65825;52.232;10.566;2024-03-02T04:30:32;99566.75;;;10.74;69.37
76853;BME280;65825;52.232;10.566;2024-03-02T04:32:58;99568.56;;;10.38;69.06
76853;BME280;65825;52.232;10.566;2024-03-02T04:35:23;99568.50;;;10.39;68.79
76853;BME280;65825;52.232;10.566;2024-03-02T04:37:48;99564.69;;;10.80;68.35
76853;BME280;65825;52.232;10.566;2024-03-02T04:40:14;99572.28;;;10.86;68.01
76853;BME280;65825;52.232;10.566;2024-03-02T04:42:39;99577.41;;;10.89;68.07
76853;BME280;65825;52.232;10.566;2024-03-02T04:45:05;99569.47;;;10.72;67.92
76853;BME280;65825;52.232;10.566;2024-03-02T04:47:30;99580.59;;;11.30;66.57
76853;BME280;65825;52.232;10.566;2024-03-02T04:49:56;99580.50;;;11.14;66.74
76853;BME280;65825;52.232;10.566;2024-03-02T04:52:21;99587.97;;;11.23;66.82
76853;BME280;65825;52.232;10.566;2024-03-02T04:54:46;99583.72;;;10.87;67.41
76853;BME280;65825;52.232;10.566;2024-03-02T04:57:30;99581.22;;;10.67;67.86
76853;BME280;65825;52.232;10.566;2024-03-02T04:59:55;99589.31;;;10.62;68.20
76853;BME280;65825;52.232;10.566;2024-03-02T05:02:20;99585.66;;;11.00;67.08
76853;BME280;65825;52.232;10.566;2024-03-02T05:04:45;99587.69;;;10.24;68.88
76853;BME280;65825;52.232;10.566;2024-03-02T05:07:11;99591.69;;;10.33;68.95
76853;BME280;65825;52.232;10.566;2024-03-02T05:09:36;99593.09;;;10.03;70.26
76853;BME280;65825;52.232;10.566;2024-03-02T05:12:01;99593.50;;;10.14;69.95
76853;BME280;65825;52.232;10.566;2024-03-02T05:14:29;99603.38;;;9.90;70.45
76853;BME280;65825;52.232;10.566;2024-03-02T05:16:55;99598.53;;;10.18;70.63
76853;BME280;65825;52.232;10.566;2024-03-02T05:19:20;99588.63;;;9.86;70.90
76853;BME280;65825;52.232;10.566;2024-03-02T05:21:45;99608.06;;;10.02;71.10
76853;BME280;65825;52.232;10.566;2024-03-02T05:24:10;99607.69;;;10.11;70.50
76853;BME280;65825;52.232;10.566;2024-03-02T05:26:36;99603.56;;;9.86;71.43
76853;BME280;65825;52.232;10.566;2024-03-02T05:29:01;99602.09;;;9.99;71.12
76853;BME280;65825;52.232;10.566;2024-03-02T05:31:28;99598.50;;;10.00;71.12
76853;BME280;65825;52.232;10.566;2024-03-02T05:33:53;99601.22;;;9.80;71.96
76853;BME280;65825;52.232;10.566;2024-03-02T05:36:18;99597.94;;;9.93;71.09
76853;BME280;65825;52.232;10.566;2024-03-02T05:38:45;99594.59;;;9.90;71.17
76853;BME280;65825;52.232;10.566;2024-03-02T05:41:10;99599.22;;;9.85;71.29
76853;BME280;65825;52.232;10.566;2024-03-02T05:43:37;99597.06;;;9.74;71.89
76853;BME280;65825;52.232;10.566;2024-03-02T05:46:02;99601.53;;;10.11;70.62
76853;BME280;65825;52.232;10.566;2024-03-02T05:48:27;99603.63;;;10.03;71.21
76853;BME280;65825;52.232;10.566;2024-03-02T05:50:52;99605.38;;;9.85;71.21
76853;BME280;65825;52.232;10.566;2024-03-02T05:53:18;99608.19;;;9.42;72.83
76853;BME280;65825;52.232;10.566;2024-03-02T05:55:43;99605.59;;;9.61;72.10
76853;BME280;65825;52.232;10.566;2024-03-02T05:58:10;99603.09;;;9.58;72.21
76853;BME280;65825;52.232;10.566;2024-03-02T06:00:53;99603.28;;;9.53;72.67
76853;BME280;65825;52.232;10.566;2024-03-02T06:03:19;99606.13;;;9.69;72.21
76853;BME280;65825;52.232;10.566;2024-03-02T06:05:45;99605.09;;;9.53;73.12
76853;BME280;65825;52.232;10.566;2024-03-02T06:08:10;99596.59;;;9.46;72.79
76853;BME280;65825;52.232;10.566;2024-03-02T06:10:35;99606.09;;;9.50;72.02
76853;BME280;65825;52.232;10.566;2024-03-02T06:13:00;99614.59;;;9.37;73.23
76853;BME280;65825;52.232;10.566;2024-03-02T06:15:25;99621.41;;;9.41;72.99
76853;BME280;65825;52.232;10.566;2024-03-02T06:17:51;99617.34;;;9.34;74.05
76853;BME280;65825;52.232;10.566;2024-03-02T06:20:16;99610.66;;;9.27;74.21
76853;BME280;65825;52.232;10.566;2024-03-02T06:22:41;99610.03;;;9.40;73.86
76853;BME280;65825;52.232;10.566;2024-03-02T06:25:07;99623.28;;;9.19;73.25
76853;BME280;65825;52.232;10.566;2024-03-02T06:27:32;99624.72;;;9.46;72.97
76853;BME280;65825;52.232;10.566;2024-03-02T06:29:57;99623.38;;;9.56;72.66
76853;BME280;65825;52.232;10.566;2024-03-02T06:32:22;99631.28;;;9.56;72.45
76853;BME280;65825;52.232;10.566;2024-03-02T06:34:50;99621.25;;;9.25;73.79
76853;BME280;65825;52.232;10.566;2024-03-02T06:37:15;99600.06;;;9.08;73.23
76853;BME280;65825;52.232;10.566;2024-03-02T06:39:41;99621.69;;;9.55;72.65
76853;BME280;65825;52.232;10.566;2024-03-02T06:42:06;99628.53;;;9.59;72.23
76853;BME280;65825;52.232;10.566;2024-03-02T06:44:31;99631.59;;;9.68;71.73
76853;BME280;65825;52.232;10.566;2024-03-02T06:46:56;99629.13;;;9.65;71.61
76853;BME280;65825;52.232;10.566;2024-03-02T06:49:22;99638.69;;;9.48;72.33
76853;BME280;65825;52.232;10.566;2024-03-02T06:51:47;99629.44;;;9.78;72.61
76853;BME280;65825;52.232;10.566;2024-03-02T06:54:12;99645.31;;;9.56;73.10
76853;BME280;65825;52.232;10.566;2024-03-02T06:56:37;99647.56;;;9.45;72.99
76853;BME280;65825;52.232;10.566;2024-03-02T06:59:04;99649.13;;;9.69;72.33
76853;BME280;65825;52.232;10.566;2024-03-02T07:01:29;99642.16;;;9.48;72.37
76853;BME280;65825;52.232;10.566;2024-03-02T07:03:54;99641.47;;;9.63;73.32
76853;BME280;65825;52.232;10.566;2024-03-02T07:06:19;99640.63;;;9.83;71.57
76853;BME280;65825;52.232;10.566;2024-03-02T07:08:45;99637.22;;;9.61;73.37
76853;BME280;65825;52.232;10.566;2024-03-02T07:11:10;99640.75;;;9.80;72.46
76853;BME280;65825;52.232;10.566;2024-03-02T07:13:35;99635.78;;;9.54;72.96
76853;BME280;65825;52.232;10.566;2024-03-02T07:16:00;99633.91;;;9.76;72.77
76853;BME280;65825;52.232;10.566;2024-03-02T07:18:29;99633.91;;;9.76;73.05
76853;BME280;65825;52.232;10.566;2024-03-02T07:20:56;99627.03;;;9.72;72.95
76853;BME280;65825;52.232;10.566;2024-03-02T07:23:23;99633.31;;;9.69;73.34
76853;BME280;65825;52.232;10.566;2024-03-02T07:25:52;99638.97;;;9.80;72.22
76853;BME280;65825;52.232;10.566;2024-03-02T07:28:19;99646.81;;;10.00;71.90
76853;BME280;65825;52.232;10.566;2024-03-02T07:30:45;99647.19;;;9.54;73.50
76853;BME280;65825;52.232;10.566;2024-03-02T07:33:10;99644.69;;;9.90;72.95
76853;BME280;65825;52.232;10.566;2024-03-02T07:35:35;99653.53;;;9.69;72.45
76853;BME280;65825;52.232;10.566;2024-03-02T07:38:01;99650.88;;;9.89;72.49
76853;BME280;65825;52.232;10.566;2024-03-02T07:40:26;99644.69;;;9.90;71.96
76853;BME280;65825;52.232;10.566;2024-03-02T07:42:52;99668.03;;;9.79;72.31
76853;BME280;65825;52.232;10.566;2024-03-02T07:45:17;99668.63;;;10.24;70.54
76853;BME280;65825;52.232;10.566;2024-03-02T07:47:42;99658.13;;;10.22;71.86
76853;BME280;65825;52.232;10.566;2024-03-02T07:50:07;99667.38;;;10.49;70.87
76853;BME280;65825;52.232;10.566;2024-03-02T07:52:33;99668.63;;;10.78;69.80
76853;BME280;65825;52.232;10.566;2024-03-02T07:54:58;99674.72;;;10.43;70.77
76853;BME280;65825;52.232;10.566;2024-03-02T07:57:24;99665.50;;;10.70;69.74
76853;BME280;65825;52.232;10.566;2024-03-02T07:59:50;99668.41;;;10.82;69.46
76853;BME280;65825;52.232;10.566;2024-03-02T08:02:15;99678.16;;;10.63;70.01
76853;BME280;65825;52.232;10.566;2024-03-02T08:04:41;99671.75;;;10.86;70.36
76853;BME280;65825;52.232;10.566;2024-03-02T08:07:06;99672.63;;;10.86;68.82
76853;BME280;65825;52.232;10.566;2024-03-02T08:09:31;99679.09;;;10.98;68.83
76853;BME280;65825;52.232;10.566;2024-03-02T08:11:57;99682.78;;;10.77;69.91
76853;BME280;65825;52.232;10.566;2024-03-02T08:14:23;99691.94;;;11.22;68.81
76853;BME280;65825;52.232;10.566;2024-03-02T08:16:48;99680.03;;;11.48;67.79
76853;BME280;65825;52.232;10.566;2024-03-02T08:19:13;99681.13;;;11.95;66.68
76853;BME280;65825;52.232;10.566;2024-03-02T08:21:39;99685.03;;;11.71;66.94
76853;BME280;65825;52.232;10.566;2024-03-02T08:24:04;99680.06;;;11.65;66.55
76853;BME280;65825;52.232;10.566;2024-03-02T08:26:30;99677.47;;;11.97;66.08
76853;BME280;65825;52.232;10.566;2024-03-02T08:28:57;99675.97;;;12.24;65.83
76853;BME280;65825;52.232;10.566;2024-03-02T08:31:23;99674.56;;;12.17;64.74
76853;BME280;65825;52.232;10.566;2024-03-02T08:33:48;99692.22;;;12.49;64.97
76853;BME280;65825;52.232;10.566;2024-03-02T08:36:13;99686.75;;;12.68;64.70
76853;BME280;65825;52.232;10.566;2024-03-02T08:38:38;99686.28;;;13.22;62.99
76853;BME280;65825;52.232;10.566;2024-03-02T08:41:04;99684.69;;;12.88;63.93
76853;BME280;65825;52.232;10.566;2024-03-02T08:43:30;99682.31;;;13.15;62.66
76853;BME280;65825;52.232;10.566;2024-03-02T08:45:55;99676.94;;;13.30;61.62
76853;BME280;65825;52.232;10.566;2024-03-02T08:48:20;99670.69;;;13.31;62.05
76853;BME280;65825;52.232;10.566;2024-03-02T08:50:46;99677.63;;;13.34;62.13
76853;BME280;65825;52.232;10.566;2024-03-02T08:53:11;99677.72;;;13.90;61.24
76853;BME280;65825;52.232;10.566;2024-03-02T08:55:36;99675.09;;;13.90;61.06
76853;BME280;65825;52.232;10.566;2024-03-02T08:58:02;99672.75;;;14.27;59.93
76853;BME280;65825;52.232;10.566;2024-03-02T09:00:27;99669.91;;;13.59;61.62
76853;BME280;65825;52.232;10.566;2024-03-02T09:02:52;99682.03;;;13.19;61.15
76853;BME280;65825;52.232;10.566;2024-03-02T09:05:17;99681.03;;;13.36;62.05
76853;BME280;65825;52.232;10.566;2024-03-02T09:07:43;99687.25;;;13.05;62.12
76853;BME280;65825;52.232;10.566;2024-03-02T09:10:08;99683.63;;;13.22;63.31
76853;BME280;65825;52.232;10.566;2024-03-02T09:12:34;99677.63;;;13.63;62.36
76853;BME280;65825;52.232;10.566;2024-03-02T09:15:00;99697.25;;;13.16;61.95
76853;BME280;65825;52.232;10.566;2024-03-02T09:17:26;99694.06;;;13.25;62.05
76853;BME280;65825;52.232;10.566;2024-03-02T09:19:51;99691.38;;;13.40;62.08
76853;BME280;65825;52.232;10.566;2024-03-02T09:22:18;99688.44;;;13.74;61.42
76853;BME280;65825;52.232;10.566;2024-03-02T09:24:43;99695.56;;;14.16;60.61
76853;BME280;65825;52.232;10.566;2024-03-02T09:27:08;99691.63;;;13.06;62.61
76853;BME280;65825;52.232;10.566;2024-03-02T09:29:34;99697.34;;;13.87;61.46
76853;BME280;65825;52.232;10.566;2024-03-02T09:31:59;99698.41;;;13.99;60.61
76853;BME280;65825;52.232;10.566;2024-03-02T09:34:24;99696.91;;;14.51;60.37
76853;BME280;65825;52.232;10.566;2024-03-02T09:36:51;99697.97;;;14.89;59.03
76853;BME280;65825;52.232;10.566;2024-03-02T09:39:16;99695.56;;;15.51;57.48
76853;BME280;65825;52.232;10.566;2024-03-02T09:41:43;99703.34;;;15.01;57.23
76853;BME280;65825;52.232;10.566;2024-03-02T09:44:08;99690.31;;;15.37;56.32
76853;BME280;65825;52.232;10.566;2024-03-02T09:46:33;99701.25;;;15.72;56.39
76853;BME280;65825;52.232;10.566;2024-03-02T09:49:00;99704.47;;;16.02;55.22
76853;BME280;65825;52.232;10.566;2024-03-02T09:51:26;99713.69;;;15.59;56.58
76853;BME280;65825;52.232;10.566;2024-03-02T09:53:51;99716.13;;;15.09;57.46
76853;BME280;65825;52.232;10.566;2024-03-02T09:56:16;99712.78;;;15.46;56.38
76853;BME280;65825;52.232;10.566;2024-03-02T09:58:43;99712.19;;;15.55;56.22
76853;BME280;65825;52.232;10.566;2024-03-02T10:01:10;99721.72;;;15.45;57.12
76853;BME280;65825;52.232;10.566;2024-03-02T10:03:37;99714.72;;;15.30;57.19
76853;BME280;65825;52.232;10.566;2024-03-02T10:06:24;99719.19;;;15.03;58.37
76853;BME280;65825;52.232;10.566;2024-03-02T10:08:50;99727.72;;;15.08;58.73
76853;BME280;65825;52.232;10.566;2024-03-02T10:11:32;99717.06;;;15.48;57.54
76853;BME280;65825;52.232;10.566;2024-03-02T10:14:05;99732.50;;;15.03;59.19
76853;BME280;65825;52.232;10.566;2024-03-02T10:16:35;99739.19;;;14.82;59.80
76853;BME280;65825;52.232;10.566;2024-03-02T10:21:44;99728.94;;;14.90;59.34
76853;BME280;65825;52.232;10.566;2024-03-02T10:24:10;99734.94;;;15.32;59.01
76853;BME280;65825;52.232;10.566;2024-03-02T10:26:35;99733.22;;;16.09;57.13
76853;BME280;65825;52.232;10.566;2024-03-02T10:29:00;99734.31;;;16.57;56.44
76853;BME280;65825;52.232;10.566;2024-03-02T10:31:26;99733.00;;;16.62;56.38
76853;BME280;65825;52.232;10.566;2024-03-02T10:33:57;99731.22;;;16.99;55.79
76853;BME280;65825;52.232;10.566;2024-03-02T10:36:22;99729.88;;;17.17;54.51
76853;BME280;65825;52.232;10.566;2024-03-02T10:38:48;99726.97;;;17.56;53.22
76853;BME280;65825;52.232;10.566;2024-03-02T10:41:23;99741.00;;;17.11;55.08
76853;BME280;65825;52.232;10.566;2024-03-02T10:43:50;99736.91;;;16.94;54.56
76853;BME280;65825;52.232;10.566;2024-03-02T10:46:19;99732.63;;;17.28;54.32
76853;BME280;65825;52.232;10.566;2024-03-02T10:48:45;99723.91;;;17.49;53.21
76853;BME280;65825;52.232;10.566;2024-03-02T10:51:11;99732.56;;;16.81;54.57
76853;BME280;65825;52.232;10.566;2024-03-02T10:53:36;99727.28;;;17.28;51.71
76853;BME280;65825;52.232;10.566;2024-03-02T10:56:03;99722.38;;;17.22;52.01
76853;BME280;65825;52.232;10.566;2024-03-02T10:58:33;99730.47;;;17.80;51.39
76853;BME280;65825;52.232;10.566;2024-03-02T11:01:05;99722.31;;;17.47;51.66
76853;BME280;65825;52.232;10.566;2024-03-02T11:03:35;99727.31;;;16.43;53.13
76853;BME280;65825;52.232;10.566;2024-03-02T11:06:01;99725.16;;;16.23;55.35
76853;BME280;65825;52.232;10.566;2024-03-02T11:08:31;99731.16;;;17.24;53.61
76853;BME280;65825;52.232;10.566;2024-03-02T11:11:07;99721.34;;;17.71;52.99
76853;BME280;65825;52.232;10.566;2024-03-02T11:13:36;99728.00;;;16.70;54.27
76853;BME280;65825;52.232;10.566;2024-03-02T11:16:06;99723.31;;;16.36;54.99
76853;BME280;65825;52.232;10.566;2024-03-02T11:18:35;99721.47;;;16.87;53.79
76853;BME280;65825;52.232;10.566;2024-03-02T11:21:02;99718.31;;;16.07;53.70
76853;BME280;65825;52.232;10.566;2024-03-02T11:23:32;99725.16;;;16.11;54.69
76853;BME280;65825;52.232;10.566;2024-03-02T11:26:17;99726.88;;;16.49;54.60
76853;BME280;65825;52.232;10.566;2024-03-02T11:28:43;99721.69;;;16.71;54.05
76853;BME280;65825;52.232;10.566;2024-03-02T11:31:08;99717.97;;;16.36;54.05
76853;BME280;65825;52.232;10.566;2024-03-02T11:33:34;99719.72;;;16.00;54.54
76853;BME280;65825;52.232;10.566;2024-03-02T11:36:00;99715.66;;;15.43;56.24
76853;BME280;65825;52.232;10.566;2024-03-02T11:38:28;99719.56;;;15.76;55.69
76853;BME280;65825;52.232;10.566;2024-03-02T11:40:53;99717.97;;;15.35;55.90
76853;BME280;65825;52.232;10.566;2024-03-02T11:43:19;99710.03;;;15.99;54.37
76853;BME280;65825;52.232;10.566;2024-03-02T11:45:44;99714.88;;;15.67;53.78
76853;BME280;65825;52.232;10.566;2024-03-02T11:48:11;99702.84;;;15.74;53.79
76853;BME280;65825;52.232;10.566;2024-03-02T11:50:49;99708.19;;;16.12;53.31
76853;BME280;65825;52.232;10.566;2024-03-02T11:53:15;99706.06;;;16.54;52.69
76853;BME280;65825;52.232;10.566;2024-03-02T11:55:41;99713.53;;;16.12;52.53
76853;BME280;65825;52.232;10.566;2024-03-02T11:58:11;99705.88;;;15.95;52.96
76853;BME280;65825;52.232;10.566;2024-03-02T12:00:37;99709.31;;;15.58;54.20
76853;BME280;65825;52.232;10.566;2024-03-02T12:03:07;99707.78;;;16.05;53.08
76853;BME280;65825;52.232;10.566;2024-03-02T12:05:33;99712.91;;;16.46;53.24
76853;BME280;65825;52.232;10.566;2024-03-02T12:07:59;99705.00;;;16.57;51.95
76853;BME280;65825;52.232;10.566;2024-03-02T12:10:25;99706.81;;;16.92;51.12
76853;BME280;65825;52.232;10.566;2024-03-02T12:13:04;99705.00;;;17.52;49.80
76853;BME280;65825;52.232;10.566;2024-03-02T12:15:33;99707.34;;;16.97;49.83
76853;BME280;65825;52.232;10.566;2024-03-02T12:18:01;99693.25;;;17.08;50.00
76853;BME280;65825;52.232;10.566;2024-03-02T12:20:29;99702.97;;;17.67;48.06
76853;BME280;65825;52.232;10.566;2024-03-02T12:22:57;99700.34;;;17.78;47.93
76853;BME280;65825;52.232;10.566;2024-03-02T12:25:24;99704.84;;;17.43;48.24
76853;BME280;65825;52.232;10.566;2024-03-02T12:27:51;99694.03;;;17.79;47.14
76853;BME280;65825;52.232;10.566;2024-03-02T12:30:17;99697.38;;;18.15;47.42
76853;BME280;65825;52.232;10.566;2024-03-02T12:32:44;99694.94;;;19.00;44.10
76853;BME280;65825;52.232;10.566;2024-03-02T12:35:10;99694.47;;;18.84;44.70
76853;BME280;65825;52.232;10.566;2024-03-02T12:37:49;99702.34;;;19.08;44.65
76853;BME280;65825;52.232;10.566;2024-03-02T12:40:16;99691.44;;;19.94;43.96
76853;BME280;65825;52.232;10.566;2024-03-02T12:42:43;99681.16;;;19.79;42.78
76853;BME280;65825;52.232;10.566;2024-03-02T12:45:09;99677.16;;;20.74;41.76
76853;BME280;65825;52.232;10.566;2024-03-02T12:47:35;99675.09;;;19.77;41.70
76853;BME280;65825;52.232;10.566;2024-03-02T12:50:01;99676.22;;;20.15;40.31
76853;BME280;65825;52.232;10.566;2024-03-02T12:52:27;99677.28;;;19.51;41.09